sensor_id;sensor_type;location;lat;lon;timestamp;pressure;altitude;pressure_sealevel;temperature;humidity
50774;BME280;36745;48.544;8.918;2022-10-26T00:01:17;97402.59;;;10.85;99.63
50774;BME280;36745;48.544;8.918;2022-10-26T00:04:38;97404.22;;;10.82;100.00
50774;BME280;36745;48.544;8.918;2022-10-26T00:08:00;97406.56;;;10.84;100.00
50774;BME280;36745;48.544;8.918;2022-10-26T00:11:22;97394.31;;;10.85;100.00
50774;BME280;36745;48.544;8.918;2022-10-26T00:14:43;97393.97;;;10.83;100.00
50774;BME280;36745;48.544;8.918;2022-10-26T00:18:04;97398.84;;;10.79;100.00
50774;BME280;36745;48.544;8.918;2022-10-26T00:21:26;97398.28;;;10.84;100.00
50774;BME280;36745;48.544;8.918;2022-10-26T00:24:47;97400.25;;;10.83;100.00
50774;BME280;36745;48.544;8.918;2022-10-26T00:28:08;97393.97;;;10.83;100.00
50774;BME280;36745;48.544;8.918;2022-10-26T00:31:30;97385.03;;;10.79;100.00
50774;BME280;36745;48.544;8.918;2022-10-26T00:34:51;97397.81;;;10.85;100.00
50774;BME280;36745;48.544;8.918;2022-10-26T00:38:12;97401.03;;;10.97;100.00
50774;BME280;36745;48.544;8.918;2022-10-26T00:41:33;97405.47;;;10.94;100.00
50774;BME280;36745;48.544;8.918;2022-10-26T00:44:57;97411.19;;;10.87;100.00
50774;BME280;36745;48.544;8.918;2022-10-26T00:48:33;97408.31;;;10.90;100.00
50774;BME280;36745;48.544;8.918;2022-10-26T00:51:55;97401.69;;;10.88;100.00
50774;BME280;36745;48.544;8.918;2022-10-26T00:55:17;97406.31;;;10.91;100.00
50774;BME280;36745;48.544;8.918;2022-10-26T00:58:41;97407.00;;;10.95;100.00
50774;BME280;36745;48.544;8.918;2022-10-26T01:02:03;97394.97;;;11.02;100.00
50774;BME280;36745;48.544;8.918;2022-10-26T01:05:25;97377.66;;;11.01;100.00
50774;BME280;36745;48.544;8.918;2022-10-26T01:08:47;97369.69;;;11.03;100.00
50774;BME280;36745;48.544;8.918;2022-10-26T01:12:09;97362.41;;;11.09;100.00
50774;BME280;36745;48.544;8.918;2022-10-26T01:30:31;97358.44;;;11.10;100.00
50774;BME280;36745;48.544;8.918;2022-10-26T01:34:02;97345.09;;;11.09;100.00
50774;BME280;36745;48.544;8.918;2022-10-26T01:37:29;97337.38;;;11.04;100.00
50774;BME280;36745;48.544;8.918;2022-10-26T01:44:42;97336.38;;;11.10;100.00
50774;BME280;36745;48.544;8.918;2022-10-26T01:48:07;97350.47;;;11.12;100.00
50774;BME280;36745;48.544;8.918;2022-10-26T01:51:31;97343.44;;;11.11;100.00
50774;BME280;36745;48.544;8.918;2022-10-26T01:55:04;97333.72;;;11.07;100.00
50774;BME280;36745;48.544;8.918;2022-10-26T01:59:02;97314.75;;;10.96;100.00
50774;BME280;36745;48.544;8.918;2022-10-26T02:06:27;97337.72;;;10.93;100.00
50774;BME280;36745;48.544;8.918;2022-10-26T02:13:43;97353.69;;;10.85;100.00
50774;BME280;36745;48.544;8.918;2022-10-26T02:17:25;97359.34;;;10.82;100.00
50774;BME280;36745;48.544;8.918;2022-10-26T02:20:50;97369.59;;;10.81;100.00
50774;BME280;36745;48.544;8.918;2022-10-26T02:24:14;97381.41;;;10.82;100.00
50774;BME280;36745;48.544;8.918;2022-10-26T02:27:42;97371.25;;;10.79;100.00
50774;BME280;36745;48.544;8.918;2022-10-26T02:31:06;97376.84;;;10.75;100.00
50774;BME280;36745;48.544;8.918;2022-10-26T02:34:29;97372.22;;;10.72;100.00
50774;BME280;36745;48.544;8.918;2022-10-26T02:37:54;97366.84;;;10.69;100.00
50774;BME280;36745;48.544;8.918;2022-10-26T02:41:19;97381.28;;;10.73;100.00
50774;BME280;36745;48.544;8.918;2022-10-26T02:44:46;97380.94;;;10.71;100.00
50774;BME280;36745;48.544;8.918;2022-10-26T02:48:09;97384.25;;;10.66;100.00
50774;BME280;36745;48.544;8.918;2022-10-26T02:51:38;97391.41;;;10.63;100.00
50774;BME280;36745;48.544;8.918;2022-10-26T02:58:32;97396.47;;;10.65;100.00
50774;BME280;36745;48.544;8.918;2022-10-26T03:01:56;97398.38;;;10.68;100.00
50774;BME280;36745;48.544;8.918;2022-10-26T03:05:24;97408.50;;;10.71;100.00
50774;BME280;36745;48.544;8.918;2022-10-26T03:08:46;97426.59;;;10.72;100.00
50774;BME280;36745;48.544;8.918;2022-10-26T03:12:07;97420.97;;;10.75;100.00
50774;BME280;36745;48.544;8.918;2022-10-26T03:15:28;97427.19;;;10.79;100.00
50774;BME280;36745;48.544;8.918;2022-10-26T03:18:49;97433.56;;;10.76;100.00
50774;BME280;36745;48.544;8.918;2022-10-26T03:22:10;97444.81;;;10.82;100.00
50774;BME280;36745;48.544;8.918;2022-10-26T03:25:32;97438.09;;;10.83;100.00
50774;BME280;36745;48.544;8.918;2022-10-26T03:28:53;97436.44;;;10.85;100.00
50774;BME280;36745;48.544;8.918;2022-10-26T03:32:15;97424.97;;;10.87;100.00
50774;BME280;36745;48.544;8.918;2022-10-26T03:35:36;97433.03;;;10.94;100.00
50774;BME280;36745;48.544;8.918;2022-10-26T03:38:57;97422.66;;;10.98;100.00
50774;BME280;36745;48.544;8.918;2022-10-26T03:42:18;97424.56;;;11.01;100.00
50774;BME280;36745;48.544;8.918;2022-10-26T03:45:39;97426.75;;;11.06;100.00
50774;BME280;36745;48.544;8.918;2022-10-26T03:49:01;97397.06;;;11.10;100.00
50774;BME280;36745;48.544;8.918;2022-10-26T03:52:22;97378.97;;;11.09;100.00
50774;BME280;36745;48.544;8.918;2022-10-26T03:55:44;97382.06;;;11.11;100.00
50774;BME280;36745;48.544;8.918;2022-10-26T03:59:06;97399.28;;;11.15;100.00
50774;BME280;36745;48.544;8.918;2022-10-26T04:02:27;97373.25;;;11.16;100.00
50774;BME280;36745;48.544;8.918;2022-10-26T04:05:48;97384.84;;;11.11;100.00
50774;BME280;36745;48.544;8.918;2022-10-26T04:09:09;97423.78;;;11.13;100.00
50774;BME280;36745;48.544;8.918;2022-10-26T04:12:30;97418.94;;;11.17;100.00
50774;BME280;36745;48.544;8.918;2022-10-26T04:15:52;97431.63;;;11.15;100.00
50774;BME280;36745;48.544;8.918;2022-10-26T04:19:13;97432.38;;;11.15;100.00
50774;BME280;36745;48.544;8.918;2022-10-26T04:22:34;97422.66;;;11.23;100.00
50774;BME280;36745;48.544;8.918;2022-10-26T04:25:56;97410.09;;;11.22;100.00
50774;BME280;36745;48.544;8.918;2022-10-26T04:29:17;97389.78;;;11.16;100.00
50774;BME280;36745;48.544;8.918;2022-10-26T04:32:39;97400.84;;;11.16;100.00
50774;BME280;36745;48.544;8.918;2022-10-26T04:36:00;97381.41;;;11.20;100.00
50774;BME280;36745;48.544;8.918;2022-10-26T04:39:22;97397.59;;;11.18;100.00
50774;BME280;36745;48.544;8.918;2022-10-26T04:42:45;97389.66;;;11.07;100.00
50774;BME280;36745;48.544;8.918;2022-10-26T04:46:06;97396.06;;;11.04;100.00
50774;BME280;36745;48.544;8.918;2022-10-26T04:49:27;97403.00;;;10.96;100.00
50774;BME280;36745;48.544;8.918;2022-10-26T04:52:52;97409.53;;;10.89;100.00
50774;BME280;36745;48.544;8.918;2022-10-26T04:56:13;97411.19;;;10.87;100.00
50774;BME280;36745;48.544;8.918;2022-10-26T04:59:34;97405.00;;;10.83;100.00
50774;BME280;36745;48.544;8.918;2022-10-26T05:03:03;97408.97;;;10.82;100.00
50774;BME280;36745;48.544;8.918;2022-10-26T05:06:24;97414.13;;;10.80;100.00
50774;BME280;36745;48.544;8.918;2022-10-26T05:09:46;97415.16;;;10.86;100.00
50774;BME280;36745;48.544;8.918;2022-10-26T05:13:08;97412.84;;;10.84;100.00
50774;BME280;36745;48.544;8.918;2022-10-26T05:16:29;97414.72;;;10.87;100.00
50774;BME280;36745;48.544;8.918;2022-10-26T05:19:50;97420.44;;;10.93;100.00
50774;BME280;36745;48.544;8.918;2022-10-26T05:23:16;97422.22;;;10.87;100.00
50774;BME280;36745;48.544;8.918;2022-10-26T05:26:38;97425.97;;;10.93;100.00
50774;BME280;36745;48.544;8.918;2022-10-26T05:29:59;97431.38;;;10.97;100.00
50774;BME280;36745;48.544;8.918;2022-10-26T05:33:21;97427.31;;;11.01;100.00
50774;BME280;36745;48.544;8.918;2022-10-26T05:36:42;97421.81;;;11.01;100.00
50774;BME280;36745;48.544;8.918;2022-10-26T05:40:04;97427.63;;;11.03;100.00
50774;BME280;36745;48.544;8.918;2022-10-26T05:43:25;97430.38;;;11.03;100.00
50774;BME280;36745;48.544;8.918;2022-10-26T05:46:47;97437.81;;;11.06;100.00
50774;BME280;36745;48.544;8.918;2022-10-26T05:50:09;97441.31;;;11.07;100.00
50774;BME280;36745;48.544;8.918;2022-10-26T05:53:30;97454.66;;;11.08;100.00
50774;BME280;36745;48.544;8.918;2022-10-26T05:56:52;97459.63;;;11.13;100.00
50774;BME280;36745;48.544;8.918;2022-10-26T06:00:18;97454.47;;;11.15;100.00
50774;BME280;36745;48.544;8.918;2022-10-26T06:07:12;97466.28;;;11.16;100.00
50774;BME280;36745;48.544;8.918;2022-10-26T06:10:34;97464.72;;;11.15;100.00
50774;BME280;36745;48.544;8.918;2022-10-26T06:13:55;97472.56;;;11.16;100.00
50774;BME280;36745;48.544;8.918;2022-10-26T06:17:30;97477.19;;;11.19;100.00
50774;BME280;36745;48.544;8.918;2022-10-26T06:29:27;97495.53;;;11.39;100.00
50774;BME280;36745;48.544;8.918;2022-10-26T06:32:52;97493.44;;;11.43;100.00
50774;BME280;36745;48.544;8.918;2022-10-26T06:36:20;97500.94;;;11.42;100.00
50774;BME280;36745;48.544;8.918;2022-10-26T06:39:46;97510.31;;;11.45;100.00
50774;BME280;36745;48.544;8.918;2022-10-26T06:43:22;97501.50;;;11.50;100.00
50774;BME280;36745;48.544;8.918;2022-10-26T06:47:06;97514.75;;;11.55;100.00
50774;BME280;36745;48.544;8.918;2022-10-26T06:50:37;97522.50;;;11.60;100.00
50774;BME280;36745;48.544;8.918;2022-10-26T06:54:05;97531.97;;;11.59;100.00
50774;BME280;36745;48.544;8.918;2022-10-26T06:57:34;97518.94;;;11.59;100.00
50774;BME280;36745;48.544;8.918;2022-10-26T07:00:56;97518.41;;;11.64;100.00
50774;BME280;36745;48.544;8.918;2022-10-26T07:04:17;97523.69;;;11.71;100.00
50774;BME280;36745;48.544;8.918;2022-10-26T07:07:41;97537.00;;;11.76;100.00
50774;BME280;36745;48.544;8.918;2022-10-26T07:11:03;97537.53;;;11.84;100.00
50774;BME280;36745;48.544;8.918;2022-10-26T07:14:29;97542.69;;;11.95;100.00
50774;BME280;36745;48.544;8.918;2022-10-26T07:17:50;97535.06;;;11.99;100.00
50774;BME280;36745;48.544;8.918;2022-10-26T07:21:11;97541.16;;;12.06;100.00
50774;BME280;36745;48.544;8.918;2022-10-26T07:24:33;97542.00;;;12.16;100.00
50774;BME280;36745;48.544;8.918;2022-10-26T07:27:58;97550.63;;;12.31;100.00
50774;BME280;36745;48.544;8.918;2022-10-26T07:31:19;97559.97;;;12.46;100.00
50774;BME280;36745;48.544;8.918;2022-10-26T07:34:40;97568.22;;;12.58;100.00
50774;BME280;36745;48.544;8.918;2022-10-26T07:38:02;97571.50;;;12.66;100.00
50774;BME280;36745;48.544;8.918;2022-10-26T07:41:24;97573.56;;;12.75;100.00
50774;BME280;36745;48.544;8.918;2022-10-26T07:44:45;97575.66;;;12.83;100.00
50774;BME280;36745;48.544;8.918;2022-10-26T07:48:06;97578.81;;;12.94;100.00
50774;BME280;36745;48.544;8.918;2022-10-26T07:51:28;97576.75;;;13.08;100.00
50774;BME280;36745;48.544;8.918;2022-10-26T07:54:49;97572.22;;;13.14;100.00
50774;BME280;36745;48.544;8.918;2022-10-26T07:58:10;97579.69;;;13.26;100.00
50774;BME280;36745;48.544;8.918;2022-10-26T08:01:31;97583.59;;;13.37;100.00
50774;BME280;36745;48.544;8.918;2022-10-26T08:04:53;97581.31;;;13.45;100.00
50774;BME280;36745;48.544;8.918;2022-10-26T08:08:14;97588.16;;;13.53;100.00
50774;BME280;36745;48.544;8.918;2022-10-26T08:11:35;97588.19;;;13.62;100.00
50774;BME280;36745;48.544;8.918;2022-10-26T08:14:57;97587.00;;;13.72;100.00
50774;BME280;36745;48.544;8.918;2022-10-26T08:18:18;97586.75;;;13.79;100.00
50774;BME280;36745;48.544;8.918;2022-10-26T08:21:39;97591.09;;;13.90;100.00
50774;BME280;36745;48.544;8.918;2022-10-26T08:25:00;97589.91;;;14.00;100.00
50774;BME280;36745;48.544;8.918;2022-10-26T08:28:22;97598.88;;;14.13;100.00
50774;BME280;36745;48.544;8.918;2022-10-26T08:31:43;97591.81;;;14.21;100.00
50774;BME280;36745;48.544;8.918;2022-10-26T08:35:04;97585.38;;;14.33;100.00
50774;BME280;36745;48.544;8.918;2022-10-26T08:38:26;97587.28;;;14.45;100.00
50774;BME280;36745;48.544;8.918;2022-10-26T08:41:48;97591.63;;;14.55;100.00
50774;BME280;36745;48.544;8.918;2022-10-26T08:45:25;97596.13;;;14.62;100.00
50774;BME280;36745;48.544;8.918;2022-10-26T08:52:43;97616.31;;;14.72;100.00
50774;BME280;36745;48.544;8.918;2022-10-26T08:56:37;97625.88;;;14.70;100.00
50774;BME280;36745;48.544;8.918;2022-10-26T09:00:03;97626.19;;;14.73;100.00
50774;BME280;36745;48.544;8.918;2022-10-26T09:03:25;97630.81;;;14.85;100.00
50774;BME280;36745;48.544;8.918;2022-10-26T09:06:59;97625.56;;;14.96;100.00
50774;BME280;36745;48.544;8.918;2022-10-26T09:14:16;97630.22;;;14.99;100.00
50774;BME280;36745;48.544;8.918;2022-10-26T09:22:24;97623.56;;;14.96;100.00
50774;BME280;36745;48.544;8.918;2022-10-26T09:25:38;97626.50;;;15.02;100.00
50774;BME280;36745;48.544;8.918;2022-10-26T09:29:02;97630.81;;;15.03;100.00
50774;BME280;36745;48.544;8.918;2022-10-26T09:32:37;97630.81;;;15.03;100.00
50774;BME280;36745;48.544;8.918;2022-10-26T09:36:02;97638.25;;;15.06;100.00
50774;BME280;36745;48.544;8.918;2022-10-26T09:39:35;97647.63;;;15.18;100.00
50774;BME280;36745;48.544;8.918;2022-10-26T09:43:09;97643.94;;;15.30;100.00
50774;BME280;36745;48.544;8.918;2022-10-26T09:50:27;97647.19;;;15.56;100.00
50774;BME280;36745;48.544;8.918;2022-10-26T09:53:49;97646.88;;;15.53;100.00
50774;BME280;36745;48.544;8.918;2022-10-26T09:57:13;97654.00;;;15.55;100.00
50774;BME280;36745;48.544;8.918;2022-10-26T10:00:36;97666.91;;;15.67;100.00
50774;BME280;36745;48.544;8.918;2022-10-26T10:07:42;97669.31;;;16.01;100.00
50774;BME280;36745;48.544;8.918;2022-10-26T10:14:31;97666.28;;;16.32;100.00
50774;BME280;36745;48.544;8.918;2022-10-26T10:17:53;97672.81;;;16.53;100.00
50774;BME280;36745;48.544;8.918;2022-10-26T10:21:18;97676.31;;;16.71;100.00
50774;BME280;36745;48.544;8.918;2022-10-26T10:24:41;97666.19;;;16.83;100.00
50774;BME280;36745;48.544;8.918;2022-10-26T10:28:25;97669.50;;;16.96;100.00
50774;BME280;36745;48.544;8.918;2022-10-26T10:31:54;97674.72;;;17.03;100.00
50774;BME280;36745;48.544;8.918;2022-10-26T10:35:28;97672.63;;;17.13;100.00
50774;BME280;36745;48.544;8.918;2022-10-26T10:38:51;97672.41;;;17.26;100.00
50774;BME280;36745;48.544;8.918;2022-10-26T10:42:17;97675.97;;;17.41;100.00
50774;BME280;36745;48.544;8.918;2022-10-26T10:45:46;97687.91;;;17.56;97.48
50774;BME280;36745;48.544;8.918;2022-10-26T10:49:22;97689.91;;;17.79;99.27
50774;BME280;36745;48.544;8.918;2022-10-26T10:52:45;97683.19;;;18.00;99.58
50774;BME280;36745;48.544;8.918;2022-10-26T11:00:03;97697.03;;;18.10;96.01
50774;BME280;36745;48.544;8.918;2022-10-26T11:03:41;97697.03;;;18.24;94.59
50774;BME280;36745;48.544;8.918;2022-10-26T11:07:06;97696.63;;;18.31;95.47
50774;BME280;36745;48.544;8.918;2022-10-26T11:10:45;97698.94;;;18.33;92.80
50774;BME280;36745;48.544;8.918;2022-10-26T11:14:28;97697.78;;;18.39;93.46
50774;BME280;36745;48.544;8.918;2022-10-26T11:18:01;97698.94;;;18.33;90.53
50774;BME280;36745;48.544;8.918;2022-10-26T11:21:34;97694.31;;;18.59;91.97
50774;BME280;36745;48.544;8.918;2022-10-26T11:28:38;97697.19;;;19.00;87.49
50774;BME280;36745;48.544;8.918;2022-10-26T11:33:02;97696.88;;;18.77;86.19
50774;BME280;36745;48.544;8.918;2022-10-26T11:36:06;97693.94;;;19.07;83.75
50774;BME280;36745;48.544;8.918;2022-10-26T11:39:46;97701.63;;;18.92;81.49
50774;BME280;36745;48.544;8.918;2022-10-26T11:43:26;97705.25;;;18.77;81.67
50774;BME280;36745;48.544;8.918;2022-10-26T11:47:24;97702.16;;;18.75;80.31
50774;BME280;36745;48.544;8.918;2022-10-26T11:50:51;97707.81;;;19.16;80.15
50774;BME280;36745;48.544;8.918;2022-10-26T11:54:29;97713.50;;;20.39;80.87
50774;BME280;36745;48.544;8.918;2022-10-26T11:57:52;97709.25;;;21.34;83.73
50774;BME280;36745;48.544;8.918;2022-10-26T12:01:15;97704.44;;;21.41;80.16
50774;BME280;36745;48.544;8.918;2022-10-26T12:04:37;97705.59;;;21.17;79.14
50774;BME280;36745;48.544;8.918;2022-10-26T12:08:05;97711.94;;;20.70;74.84
50774;BME280;36745;48.544;8.918;2022-10-26T12:15:58;97698.69;;;20.70;78.23
50774;BME280;36745;48.544;8.918;2022-10-26T12:19:08;97711.78;;;21.32;75.10
50774;BME280;36745;48.544;8.918;2022-10-26T12:22:33;97708.75;;;21.30;73.28
50774;BME280;36745;48.544;8.918;2022-10-26T12:29:47;97715.63;;;22.16;70.60
50774;BME280;36745;48.544;8.918;2022-10-26T12:33:28;97725.84;;;22.36;67.75
50774;BME280;36745;48.544;8.918;2022-10-26T12:43:54;97729.19;;;22.79;66.08
50774;BME280;36745;48.544;8.918;2022-10-26T12:50:50;97728.94;;;22.33;63.77
50774;BME280;36745;48.544;8.918;2022-10-26T12:54:34;97727.13;;;22.41;64.28
50774;BME280;36745;48.544;8.918;2022-10-26T12:58:17;97727.91;;;22.41;64.11
50774;BME280;36745;48.544;8.918;2022-10-26T13:02:02;97727.66;;;22.45;63.72
50774;BME280;36745;48.544;8.918;2022-10-26T13:09:22;97726.34;;;22.96;62.08
50774;BME280;36745;48.544;8.918;2022-10-26T13:12:51;97732.75;;;22.63;60.96
50774;BME280;36745;48.544;8.918;2022-10-26T13:16:16;97733.50;;;22.36;62.63
50774;BME280;36745;48.544;8.918;2022-10-26T13:19:44;97730.94;;;22.15;60.82
50774;BME280;36745;48.544;8.918;2022-10-26T13:30:44;97734.38;;;21.71;62.49
50774;BME280;36745;48.544;8.918;2022-10-26T13:34:15;97743.31;;;21.64;62.77
50774;BME280;36745;48.544;8.918;2022-10-26T13:37:42;97741.47;;;21.56;61.87
50774;BME280;36745;48.544;8.918;2022-10-26T13:41:09;97736.25;;;21.26;62.03
50774;BME280;36745;48.544;8.918;2022-10-26T13:44:39;97739.78;;;21.16;62.12
50774;BME280;36745;48.544;8.918;2022-10-26T13:48:18;97746.81;;;21.11;62.31
50774;BME280;36745;48.544;8.918;2022-10-26T13:51:43;97747.94;;;21.19;63.23
50774;BME280;36745;48.544;8.918;2022-10-26T13:55:19;97753.31;;;21.23;62.40
50774;BME280;36745;48.544;8.918;2022-10-26T13:59:03;97761.75;;;21.28;63.13
50774;BME280;36745;48.544;8.918;2022-10-26T14:02:27;97758.13;;;21.22;63.14
50774;BME280;36745;48.544;8.918;2022-10-26T14:05:50;97759.16;;;21.19;63.06
50774;BME280;36745;48.544;8.918;2022-10-26T14:09:13;97764.66;;;21.08;63.36
50774;BME280;36745;48.544;8.918;2022-10-26T14:12:37;97766.66;;;21.02;63.41
50774;BME280;36745;48.544;8.918;2022-10-26T14:15:58;97773.44;;;20.90;63.25
50774;BME280;36745;48.544;8.918;2022-10-26T14:19:34;97780.47;;;20.74;63.75
50774;BME280;36745;48.544;8.918;2022-10-26T14:22:56;97785.94;;;20.58;63.43
50774;BME280;36745;48.544;8.918;2022-10-26T14:26:29;97785.25;;;20.37;63.53
50774;BME280;36745;48.544;8.918;2022-10-26T14:29:52;97797.50;;;20.19;63.55
50774;BME280;36745;48.544;8.918;2022-10-26T14:33:26;97797.97;;;20.12;64.01
50774;BME280;36745;48.544;8.918;2022-10-26T14:37:03;97793.78;;;20.02;64.18
50774;BME280;36745;48.544;8.918;2022-10-26T14:40:32;97789.78;;;19.88;64.74
50774;BME280;36745;48.544;8.918;2022-10-26T14:43:57;97795.06;;;19.81;64.78
50774;BME280;36745;48.544;8.918;2022-10-26T14:47:25;97799.25;;;19.70;65.00
50774;BME280;36745;48.544;8.918;2022-10-26T14:51:09;97795.34;;;19.62;65.40
50774;BME280;36745;48.544;8.918;2022-10-26T14:54:31;97798.06;;;19.57;65.57
50774;BME280;36745;48.544;8.918;2022-10-26T14:58:07;97803.28;;;19.49;66.00
50774;BME280;36745;48.544;8.918;2022-10-26T15:01:46;97809.09;;;19.46;66.33
50774;BME280;36745;48.544;8.918;2022-10-26T15:08:44;97803.81;;;19.33;66.89
50774;BME280;36745;48.544;8.918;2022-10-26T15:12:37;97805.97;;;19.23;66.86
50774;BME280;36745;48.544;8.918;2022-10-26T15:16:23;97809.59;;;19.09;67.57
50774;BME280;36745;48.544;8.918;2022-10-26T15:19:45;97813.94;;;18.96;67.82
50774;BME280;36745;48.544;8.918;2022-10-26T15:23:12;97822.13;;;18.84;68.49
50774;BME280;36745;48.544;8.918;2022-10-26T15:26:41;97825.06;;;18.75;68.77
50774;BME280;36745;48.544;8.918;2022-10-26T15:30:26;97824.84;;;18.64;68.94
50774;BME280;36745;48.544;8.918;2022-10-26T15:37:11;97827.16;;;18.51;69.49
50774;BME280;36745;48.544;8.918;2022-10-26T15:40:33;97834.66;;;18.45;69.97
50774;BME280;36745;48.544;8.918;2022-10-26T15:43:57;97840.03;;;18.34;70.53
50774;BME280;36745;48.544;8.918;2022-10-26T15:47:27;97834.06;;;18.26;70.79
50774;BME280;36745;48.544;8.918;2022-10-26T15:50:49;97844.22;;;18.15;71.23
50774;BME280;36745;48.544;8.918;2022-10-26T15:54:11;97839.03;;;18.08;71.51
50774;BME280;36745;48.544;8.918;2022-10-26T15:57:32;97846.59;;;17.92;72.02
50774;BME280;36745;48.544;8.918;2022-10-26T16:00:54;97856.16;;;17.77;72.32
50774;BME280;36745;48.544;8.918;2022-10-26T16:04:15;97857.66;;;17.63;72.95
50774;BME280;36745;48.544;8.918;2022-10-26T16:07:37;97849.97;;;17.49;73.52
50774;BME280;36745;48.544;8.918;2022-10-26T16:10:59;97867.97;;;17.39;74.14
50774;BME280;36745;48.544;8.918;2022-10-26T16:14:20;97866.19;;;17.27;74.50
50774;BME280;36745;48.544;8.918;2022-10-26T16:17:41;97870.88;;;17.11;75.48
50774;BME280;36745;48.544;8.918;2022-10-26T16:21:03;97883.31;;;17.01;75.94
50774;BME280;36745;48.544;8.918;2022-10-26T16:24:28;97883.50;;;16.98;76.42
50774;BME280;36745;48.544;8.918;2022-10-26T16:27:51;97881.84;;;16.82;76.93
50774;BME280;36745;48.544;8.918;2022-10-26T16:31:18;97889.44;;;16.72;77.47
50774;BME280;36745;48.544;8.918;2022-10-26T16:34:40;97898.44;;;16.67;78.15
50774;BME280;36745;48.544;8.918;2022-10-26T16:38:01;97888.38;;;16.61;78.46
50774;BME280;36745;48.544;8.918;2022-10-26T16:41:22;97896.72;;;16.52;79.13
50774;BME280;36745;48.544;8.918;2022-10-26T16:44:44;97897.03;;;16.45;79.11
50774;BME280;36745;48.544;8.918;2022-10-26T16:48:05;97902.59;;;16.26;79.71
50774;BME280;36745;48.544;8.918;2022-10-26T16:51:33;97903.38;;;16.09;79.67
50774;BME280;36745;48.544;8.918;2022-10-26T16:54:55;97914.03;;;15.92;80.08
50774;BME280;36745;48.544;8.918;2022-10-26T16:58:16;97912.00;;;15.74;79.71
50774;BME280;36745;48.544;8.918;2022-10-26T17:01:38;97928.66;;;15.65;79.05
50774;BME280;36745;48.544;8.918;2022-10-26T17:04:59;97928.78;;;15.52;79.57
50774;BME280;36745;48.544;8.918;2022-10-26T17:08:21;97936.41;;;15.39;81.17
50774;BME280;36745;48.544;8.918;2022-10-26T17:11:42;97940.69;;;15.31;81.67
50774;BME280;36745;48.544;8.918;2022-10-26T17:15:03;97943.44;;;15.22;82.37
50774;BME280;36745;48.544;8.918;2022-10-26T17:18:25;97944.63;;;15.12;81.92
50774;BME280;36745;48.544;8.918;2022-10-26T17:21:46;97944.25;;;15.01;82.45
50774;BME280;36745;48.544;8.918;2022-10-26T17:25:07;97942.34;;;14.89;83.10
50774;BME280;36745;48.544;8.918;2022-10-26T17:28:29;97963.25;;;14.81;83.86
50774;BME280;36745;48.544;8.918;2022-10-26T17:31:51;97957.97;;;14.74;84.39
50774;BME280;36745;48.544;8.918;2022-10-26T17:35:12;97966.22;;;14.64;84.35
50774;BME280;36745;48.544;8.918;2022-10-26T17:38:38;97971.72;;;14.55;84.17
50774;BME280;36745;48.544;8.918;2022-10-26T17:42:00;97968.69;;;14.41;84.97
50774;BME280;36745;48.544;8.918;2022-10-26T17:45:21;97977.66;;;14.32;86.02
50774;BME280;36745;48.544;8.918;2022-10-26T17:48:43;97980.22;;;14.26;86.10
50774;BME280;36745;48.544;8.918;2022-10-26T17:52:04;97977.25;;;14.21;86.53
50774;BME280;36745;48.544;8.918;2022-10-26T17:55:26;97986.13;;;14.16;86.56
50774;BME280;36745;48.544;8.918;2022-10-26T17:58:58;97995.03;;;14.11;87.07
50774;BME280;36745;48.544;8.918;2022-10-26T18:02:19;97999.56;;;14.05;87.00
50774;BME280;36745;48.544;8.918;2022-10-26T18:05:47;97996.28;;;13.97;86.96
50774;BME280;36745;48.544;8.918;2022-10-26T18:09:08;97994.84;;;13.93;88.14
50774;BME280;36745;48.544;8.918;2022-10-26T18:12:32;98011.50;;;13.93;89.22
50774;BME280;36745;48.544;8.918;2022-10-26T18:15:54;98015.47;;;13.92;89.43
50774;BME280;36745;48.544;8.918;2022-10-26T18:19:15;98012.69;;;13.92;89.42
50774;BME280;36745;48.544;8.918;2022-10-26T18:22:36;98021.03;;;13.92;88.90
50774;BME280;36745;48.544;8.918;2022-10-26T18:26:01;98028.34;;;13.85;89.10
50774;BME280;36745;48.544;8.918;2022-10-26T18:29:23;98030.91;;;13.80;89.13
50774;BME280;36745;48.544;8.918;2022-10-26T18:32:48;98022.34;;;13.74;89.49
50774;BME280;36745;48.544;8.918;2022-10-26T18:36:15;98030.13;;;13.54;89.28
50774;BME280;36745;48.544;8.918;2022-10-26T18:39:36;98023.34;;;13.42;90.07
50774;BME280;36745;48.544;8.918;2022-10-26T18:42:58;98022.78;;;13.35;90.71
50774;BME280;36745;48.544;8.918;2022-10-26T18:46:25;98026.09;;;13.30;90.15
50774;BME280;36745;48.544;8.918;2022-10-26T18:50:08;98031.53;;;13.21;89.67
50774;BME280;36745;48.544;8.918;2022-10-26T18:53:31;98039.72;;;13.12;90.39
50774;BME280;36745;48.544;8.918;2022-10-26T18:56:53;98047.63;;;13.10;90.43
50774;BME280;36745;48.544;8.918;2022-10-26T19:00:14;98049.38;;;13.03;nan
50774;BME280;36745;48.544;8.918;2022-10-26T19:03:36;98056.34;;;12.95;91.24
50774;BME280;36745;48.544;8.918;2022-10-26T19:07:00;98052.56;;;12.89;90.98
50774;BME280;36745;48.544;8.918;2022-10-26T19:10:21;98057.41;;;12.85;91.94
50774;BME280;36745;48.544;8.918;2022-10-26T19:13:42;98065.16;;;12.90;90.61
50774;BME280;36745;48.544;8.918;2022-10-26T19:17:04;98063.16;;;12.78;90.88
50774;BME280;36745;48.544;8.918;2022-10-26T19:20:25;98068.88;;;12.71;91.67
50774;BME280;36745;48.544;8.918;2022-10-26T19:23:49;98073.63;;;12.71;92.64
50774;BME280;36745;48.544;8.918;2022-10-26T19:27:11;98063.88;;;12.66;91.18
50774;BME280;36745;48.544;8.918;2022-10-26T19:30:32;98067.19;;;12.45;91.57
50774;BME280;36745;48.544;8.918;2022-10-26T19:33:53;98071.59;;;12.42;91.46
50774;BME280;36745;48.544;8.918;2022-10-26T19:37:17;98073.78;;;12.35;92.21
50774;BME280;36745;48.544;8.918;2022-10-26T19:40:39;98086.03;;;12.34;93.00
50774;BME280;36745;48.544;8.918;2022-10-26T19:44:00;98072.13;;;12.37;92.22
50774;BME280;36745;48.544;8.918;2022-10-26T19:47:21;98077.25;;;12.23;93.16
50774;BME280;36745;48.544;8.918;2022-10-26T19:50:50;98080.00;;;12.23;93.35